Time;durP1;ratioP1;P1;durP2;ratioP2;P2;SDS_P1;SDS_P2;PMS_P1;PMS_P2;Temp;Humidity;BMP_temperature;BMP_pressure;BME280_temperature;BME280_humidity;BME280_pressure;Samples;Min_cycle;Max_cycle;Signal;HPM_P1;HPM_P2
2022/12/25 00:00:32;;;;;;;;;;;8.20;99.90;;;7.13;100.00;95940.28;10566076;27;1946;-76
2022/12/25 00:05:49;;;;;;;;;;;8.10;99.90;;;7.08;100.00;95924.19;10574543;27;2017;-75
2022/12/25 00:10:58;;;;;;;;;;;8.10;99.90;;;6.99;100.00;95911.22;10576434;27;2116;-76
2022/12/25 00:16:03;;;;;;;;;;;7.90;99.90;;;6.94;100.00;95905.03;10550951;27;1991;-78
2022/12/25 00:21:08;;;;;;;;;;;8.00;99.90;;;6.82;100.00;95901.66;10560029;27;2126;-77
2022/12/25 00:26:13;;;;;;;;;;;7.90;99.90;;;6.82;100.00;95913.16;10563957;27;1962;-77
2022/12/25 00:31:19;;;;;;;;;;;7.90;99.90;;;6.70;100.00;95918.59;10579102;27;1945;-77
2022/12/25 00:36:25;;;;;;;;;;;7.70;99.90;;;6.61;100.00;95933.38;10576206;27;2076;-78
2022/12/25 00:46:49;;;;;;;;;;;7.60;99.90;;;6.34;100.00;95938.59;10554590;27;1999;-76
2022/12/25 00:51:57;;;;;;;;;;;7.50;99.90;;;6.37;100.00;95935.44;10556823;28;1968;-76
2022/12/25 00:57:01;;;;;;;;;;;7.40;99.90;;;6.49;100.00;95938.84;10576723;28;1984;-76
2022/12/25 01:07:23;;;;;;;;;;;7.40;99.90;;;6.44;100.00;95946.78;10570678;28;1831;-77
2022/12/25 01:12:28;;;;;;;;;;;7.40;99.90;;;6.52;100.00;95942.06;10531208;28;2029;-76
2022/12/25 01:17:32;;;;;;;;;;;7.40;99.90;;;6.61;100.00;95943.28;10582990;28;2183;-76
2022/12/25 01:22:36;;;;;;;;;;;7.50;99.90;;;6.67;100.00;95934.28;10549683;28;1959;-76
2022/12/25 01:27:40;;;;;;;;;;;7.50;99.90;;;6.72;100.00;95931.69;10574243;28;4993;-77
2022/12/25 01:32:44;;;;;;;;;;;7.60;99.90;;;6.78;100.00;95931.50;10579632;28;1811;-76
2022/12/25 01:37:48;;;;;;;;;;;7.60;99.90;;;6.85;100.00;95942.03;10587833;28;1890;-77
2022/12/25 01:42:55;;;;;;;;;;;7.70;99.90;;;6.89;100.00;95932.47;10582789;27;1910;-76
2022/12/25 01:48:01;;;;;;;;;;;7.80;99.90;;;6.91;100.00;95930.34;10585983;27;2044;-77
2022/12/25 01:53:05;;;;;;;;;;;7.80;99.90;;;7.01;100.00;95927.03;10540847;28;1922;-75
2022/12/25 01:58:08;;;;;;;;;;;7.90;99.90;;;7.03;100.00;95922.25;10575978;27;1992;-76
2022/12/25 02:03:14;;;;;;;;;;;7.80;99.90;;;7.06;100.00;95921.72;10583801;27;1878;-76
2022/12/25 02:08:20;;;;;;;;;;;7.90;99.90;;;7.04;100.00;95903.28;10578490;27;1922;-77
2022/12/25 02:13:27;;;;;;;;;;;8.00;99.90;;;6.95;100.00;95904.78;10562330;27;2113;-77
2022/12/25 02:18:31;;;;;;;;;;;7.90;99.90;;;6.90;100.00;95910.03;10581552;27;2056;-77
2022/12/25 02:23:35;;;;;;;;;;;7.90;99.90;;;6.85;100.00;95909.97;10567069;27;2093;-76
2022/12/25 02:28:38;;;;;;;;;;;7.90;99.90;;;6.87;100.00;95909.72;10561058;27;5060;-77
2022/12/25 02:34:04;;;;;;;;;;;7.80;99.90;;;6.80;100.00;95907.22;10569882;27;2074;-77
2022/12/25 03:11:32;;;;;;;;;;;7.90;99.90;;;7.09;100.00;95904.41;10556437;28;2193;-77
2022/12/25 03:16:52;;;;;;;;;;;8.00;99.90;;;7.25;100.00;95911.53;10588202;27;1913;-77
2022/12/25 03:27:19;;;;;;;;;;;8.10;99.90;;;7.10;100.00;95900.66;10583602;27;4977;-79
2022/12/25 03:32:24;;;;;;;;;;;8.10;99.90;;;7.15;100.00;95903.41;10573022;27;2005;-77
2022/12/25 04:36:43;;;;;;;;;;;8.30;99.90;;;7.37;100.00;95857.94;10491192;28;2083;-76
2022/12/25 04:41:49;;;;;;;;;;;8.30;99.90;;;7.33;100.00;95871.00;10552499;27;1941;-76
2022/12/25 04:46:56;;;;;;;;;;;8.20;99.90;;;7.26;100.00;95875.75;10591846;27;1889;-76
2022/12/25 04:57:18;;;;;;;;;;;8.20;99.90;;;7.08;100.00;95862.69;10567893;27;1998;-75
2022/12/25 05:02:23;;;;;;;;;;;8.00;99.90;;;7.13;100.00;95860.09;10570683;28;2125;-78
2022/12/25 05:07:26;;;;;;;;;;;8.00;99.90;;;7.07;100.00;95864.56;10571412;28;1969;-76
2022/12/25 05:12:37;;;;;;;;;;;8.10;99.90;;;7.05;100.00;95870.13;10578719;28;2080;-77
2022/12/25 05:17:53;;;;;;;;;;;7.90;99.90;;;7.02;100.00;95873.31;10595360;27;2048;-77
2022/12/25 05:22:59;;;;;;;;;;;8.00;99.90;;;6.97;100.00;95870.56;10558280;27;2045;-77
2022/12/25 05:28:04;;;;;;;;;;;7.90;99.90;;;6.97;100.00;95869.78;10577756;27;4917;-77
2022/12/25 05:33:11;;;;;;;;;;;8.10;99.90;;;7.01;100.00;95866.38;10580408;27;1975;-77
2022/12/25 05:38:24;;;;;;;;;;;7.90;99.90;;;7.05;100.00;95867.47;10554826;28;1954;-75
2022/12/25 05:43:28;;;;;;;;;;;7.90;99.90;;;7.01;100.00;95866.38;10593574;27;2174;-75
2022/12/25 05:48:32;;;;;;;;;;;7.90;99.90;;;7.00;100.00;95870.09;10582866;27;1914;-77
2022/12/25 05:53:37;;;;;;;;;;;8.00;99.90;;;7.01;100.00;95860.22;10560879;27;1910;-76
2022/12/25 05:58:43;;;;;;;;;;;8.00;99.90;;;6.97;100.00;95854.53;10556593;27;2205;-76
2022/12/25 06:03:48;;;;;;;;;;;8.00;99.90;;;7.02;100.00;95857.28;10562498;27;2010;-77
2022/12/25 06:08:53;;;;;;;;;;;7.90;99.90;;;6.92;100.00;95867.03;10582505;27;2116;-76
2022/12/25 06:13:58;;;;;;;;;;;7.90;99.90;;;6.86;100.00;95858.13;10553343;27;1965;-75
2022/12/25 06:19:02;;;;;;;;;;;7.80;99.90;;;6.82;100.00;95865.06;10582557;27;1925;-76
2022/12/25 06:24:06;;;;;;;;;;;7.80;99.90;;;6.81;100.00;95860.78;10581881;27;1914;-77
2022/12/25 06:29:19;;;;;;;;;;;7.80;99.90;;;6.80;100.00;95861.78;10567174;27;4854;-76
2022/12/25 06:34:24;;;;;;;;;;;7.80;99.90;;;6.90;100.00;95861.94;10580439;27;2111;-76
2022/12/25 06:39:40;;;;;;;;;;;7.80;99.90;;;6.86;100.00;95868.81;10560779;27;1924;-77
2022/12/25 06:44:43;;;;;;;;;;;7.80;99.90;;;6.89;100.00;95863.00;10583232;27;2060;-77
2022/12/25 06:49:48;;;;;;;;;;;7.80;99.90;;;6.93;100.00;95853.41;10583343;27;1921;-77
2022/12/25 06:54:52;;;;;;;;;;;7.90;99.90;;;6.90;100.00;95855.78;10579251;27;2159;-77
2022/12/25 06:59:58;;;;;;;;;;;7.90;99.90;;;6.95;100.00;95864.69;10565283;27;2037;-77
2022/12/25 07:05:02;;;;;;;;;;;7.80;99.90;;;6.96;100.00;95868.97;10564196;27;1981;-77
2022/12/25 07:10:05;;;;;;;;;;;7.80;99.90;;;6.95;100.00;95864.69;10568899;27;1923;-76
2022/12/25 07:15:09;;;;;;;;;;;7.90;99.90;;;6.91;100.00;95855.53;10597422;27;1960;-78
2022/12/25 07:20:17;;;;;;;;;;;7.90;99.90;;;7.04;100.00;95855.16;10566876;27;1917;-78
2022/12/25 07:25:24;;;;;;;;;;;7.90;99.90;;;7.09;100.00;95853.63;10550214;27;1974;-76
2022/12/25 07:30:30;;;;;;;;;;;8.00;99.90;;;7.03;100.00;95837.50;10575199;27;4505;-77
2022/12/25 07:35:35;;;;;;;;;;;8.00;99.90;;;7.08;100.00;95849.34;10571192;27;1890;-77
2022/12/25 07:40:45;;;;;;;;;;;8.00;99.90;;;7.22;100.00;95854.03;10559332;27;1987;-77
2022/12/25 07:45:49;;;;;;;;;;;8.10;99.90;;;7.32;100.00;95853.38;10581572;27;1898;-77
2022/12/25 07:50:54;;;;;;;;;;;8.50;99.90;;;7.52;100.00;95852.75;10576503;27;2009;-76
2022/12/25 07:56:01;;;;;;;;;;;8.20;99.90;;;7.60;100.00;95846.94;10565516;27;1906;-76
2022/12/25 08:01:06;;;;;;;;;;;8.40;99.90;;;7.77;100.00;95842.31;10560605;27;2058;-77
2022/12/25 08:06:13;;;;;;;;;;;8.50;99.90;;;7.82;100.00;95841.53;10579748;27;1959;-76
2022/12/25 08:11:19;;;;;;;;;;;8.60;99.90;;;8.12;100.00;95840.97;10588390;27;1949;-76
2022/12/25 08:16:24;;;;;;;;;;;9.10;99.90;;;8.07;100.00;95825.69;10550474;28;1941;-76
2022/12/25 08:21:28;;;;;;;;;;;8.80;99.90;;;7.96;100.00;95824.00;10565809;27;2040;-77
2022/12/25 08:26:33;;;;;;;;;;;8.90;99.90;;;7.82;100.00;95838.84;10582556;27;4437;-75
2022/12/25 08:31:36;;;;;;;;;;;9.10;99.90;;;7.73;100.00;95840.38;10563989;27;1995;-76
2022/12/25 08:36:48;;;;;;;;;;;8.70;99.90;;;7.76;100.00;95839.88;10577419;27;1953;-75
2022/12/25 08:41:52;;;;;;;;;;;8.60;99.90;;;7.74;100.00;95842.00;10557486;27;1953;-77
2022/12/25 08:46:57;;;;;;;;;;;8.70;99.90;;;7.73;100.00;95835.84;10568036;27;2055;-76
2022/12/25 08:52:01;;;;;;;;;;;8.70;99.90;;;7.91;100.00;95836.53;10572016;27;2041;-76
2022/12/25 08:57:06;;;;;;;;;;;8.70;99.90;;;7.86;100.00;95823.91;10560650;28;1981;-77
2022/12/25 09:02:11;;;;;;;;;;;8.80;99.90;;;8.06;100.00;95820.59;10574122;27;2113;-76
2022/12/25 09:07:25;;;;;;;;;;;8.80;99.90;;;8.40;100.00;95807.75;10558470;28;1972;-76
2022/12/25 09:12:29;;;;;;;;;;;9.00;99.90;;;8.55;100.00;95798.97;10543848;28;2030;-76
2022/12/25 09:17:34;;;;;;;;;;;9.20;99.90;;;8.89;100.00;95799.41;10559219;28;1979;-75
2022/12/25 09:22:38;;;;;;;;;;;9.50;99.90;;;8.97;100.00;95801.59;10553700;28;2073;-77
2022/12/25 09:27:42;;;;;;;;;;;9.70;99.90;;;8.84;100.00;95785.97;10554844;28;4441;-75
2022/12/25 09:32:46;;;;;;;;;;;9.70;99.90;;;8.81;100.00;95797.22;10580160;28;1993;-78
2022/12/25 09:37:59;;;;;;;;;;;9.60;99.90;;;8.98;100.00;95792.47;10573996;28;1976;-76
2022/12/25 09:43:08;;;;;;;;;;;9.70;99.90;;;8.96;100.00;95797.28;10565156;28;2129;-78
2022/12/25 09:48:11;;;;;;;;;;;9.80;99.90;;;8.95;100.00;95782.28;10568383;28;1835;-76
2022/12/25 09:53:15;;;;;;;;;;;9.80;99.90;;;8.93;100.00;95774.50;10581436;28;1937;-75
2022/12/25 09:58:24;;;;;;;;;;;9.80;99.90;;;8.89;100.00;95777.97;10567832;28;1999;-75
2022/12/25 10:03:28;;;;;;;;;;;9.90;99.90;;;9.03;100.00;95779.06;10573522;27;1992;-76
2022/12/25 10:08:38;;;;;;;;;;;9.80;99.90;;;9.11;100.00;95785.81;10568619;28;1977;-76
2022/12/25 10:13:42;;;;;;;;;;;9.90;99.90;;;9.17;100.00;95788.25;10575699;27;1866;-76
2022/12/25 10:18:49;;;;;;;;;;;10.00;99.90;;;9.31;100.00;95775.16;10565574;27;2048;-77
2022/12/25 10:24:00;;;;;;;;;;;10.10;99.90;;;9.32;100.00;95776.75;10584294;27;1930;-78
2022/12/25 10:29:05;;;;;;;;;;;10.10;99.90;;;9.34;100.00;95773.78;10555060;27;4434;-77
2022/12/25 10:34:08;;;;;;;;;;;10.10;99.90;;;9.63;100.00;95758.81;10583885;27;1922;-78
2022/12/25 10:39:13;;;;;;;;;;;10.30;99.90;;;9.78;100.00;95746.47;10564532;28;2124;-77
2022/12/25 10:44:19;;;;;;;;;;;10.40;99.90;;;9.70;100.00;95735.19;10582188;27;1934;-77
2022/12/25 10:49:23;;;;;;;;;;;10.60;99.90;;;9.70;100.00;95735.19;10567969;27;1985;-75
2022/12/25 10:54:28;;;;;;;;;;;10.50;99.90;;;9.87;100.00;95724.19;10557332;27;2085;-76
2022/12/25 10:59:38;;;;;;;;;;;10.70;99.90;;;10.21;100.00;95707.47;10579102;27;1989;-77
2022/12/25 11:04:51;;;;;;;;;;;10.80;99.90;;;10.27;100.00;95712.59;10584405;27;2046;-75
2022/12/25 11:10:00;;;;;;;;;;;11.00;99.90;;;10.35;100.00;95707.72;10576543;27;1963;-77
2022/12/25 11:15:09;;;;;;;;;;;11.10;99.90;;;10.48;100.00;95712.53;10573160;27;1914;-77
2022/12/25 11:20:19;;;;;;;;;;;11.20;99.90;;;10.54;100.00;95695.31;10566278;27;2056;-76
2022/12/25 11:25:22;;;;;;;;;;;11.20;99.90;;;10.70;100.00;95688.00;10589160;27;1902;-76
2022/12/25 11:30:31;;;;;;;;;;;11.40;99.90;;;10.77;100.00;95685.81;10566560;27;4406;-76
2022/12/25 11:35:47;;;;;;;;;;;11.50;99.90;;;11.09;100.00;95675.41;10572941;27;2168;-76
2022/12/25 11:40:58;;;;;;;;;;;11.80;99.90;;;11.24;100.00;95671.78;10554929;27;1996;-77
2022/12/25 11:46:02;;;;;;;;;;;11.90;99.90;;;11.17;100.00;95665.94;10548862;27;1918;-76
2022/12/25 11:51:06;;;;;;;;;;;12.00;99.90;;;11.32;100.00;95660.44;10575290;27;1747;-77
2022/12/25 11:56:10;;;;;;;;;;;12.10;99.90;;;11.27;100.00;95657.78;10555053;27;2057;-77
2022/12/25 12:01:14;;;;;;;;;;;12.10;99.90;;;11.52;100.00;95647.91;10582818;27;2013;-77
2022/12/25 12:06:22;;;;;;;;;;;12.10;99.90;;;11.50;100.00;95636.59;10564321;27;1910;-77
2022/12/25 12:11:29;;;;;;;;;;;12.30;99.90;;;11.66;100.00;95635.41;10592452;27;2068;-77
2022/12/25 12:16:46;;;;;;;;;;;12.40;99.90;;;11.67;100.00;95631.63;10572252;28;1962;-77
2022/12/25 12:21:51;;;;;;;;;;;12.50;99.90;;;11.87;100.00;95623.38;10553238;27;2033;-76
2022/12/25 12:26:57;;;;;;;;;;;12.60;99.90;;;12.00;100.00;95613.00;10549834;27;1843;-77
2022/12/25 12:32:02;;;;;;;;;;;12.70;99.90;;;12.16;100.00;95611.75;10546782;27;2182;-76
2022/12/25 12:37:10;;;;;;;;;;;12.80;99.90;;;11.90;100.00;95606.66;10559496;27;2124;-76
2022/12/25 12:42:14;;;;;;;;;;;12.80;99.90;;;12.04;100.00;95587.09;10566848;27;1975;-77
2022/12/25 12:47:20;;;;;;;;;;;12.80;99.90;;;11.85;100.00;95589.75;10566358;27;1826;-76
2022/12/25 12:52:24;;;;;;;;;;;12.80;99.90;;;11.81;100.00;95594.88;10550571;28;1981;-76
2022/12/25 12:57:28;;;;;;;;;;;12.70;99.90;;;11.75;100.00;95590.59;10551265;28;1987;-77
2022/12/25 13:02:36;;;;;;;;;;;12.60;99.90;;;11.74;100.00;95594.38;10561354;28;1918;-78
2022/12/25 13:07:44;;;;;;;;;;;12.60;99.90;;;11.66;100.00;95592.31;10567585;28;1916;-77
2022/12/25 13:12:50;;;;;;;;;;;12.60;99.90;;;11.72;100.00;95583.09;10580664;27;1900;-75
2022/12/25 13:17:55;;;;;;;;;;;12.60;99.90;;;11.67;100.00;95590.44;10567172;28;1977;-75
2022/12/25 13:22:59;;;;;;;;;;;12.60;99.90;;;11.66;100.00;95592.31;10565135;28;1950;-76
2022/12/25 13:28:04;;;;;;;;;;;12.50;99.90;;;11.61;100.00;95589.66;10546440;28;4453;-77
2022/12/25 13:33:11;;;;;;;;;;;12.50;99.90;;;11.57;100.00;95564.41;10571525;28;1952;-76
2022/12/25 13:38:14;;;;;;;;;;;12.50;99.90;;;11.51;100.00;95555.56;10564358;27;1902;-76
2022/12/25 13:43:20;;;;;;;;;;;12.40;99.90;;;11.45;100.00;95556.72;10561184;27;1938;-76
2022/12/25 13:48:24;;;;;;;;;;;12.40;99.90;;;11.52;100.00;95564.47;10567711;27;1923;-75
2022/12/25 13:53:27;;;;;;;;;;;12.40;99.90;;;11.47;100.00;95569.91;10565828;28;1999;-76
2022/12/25 13:58:33;;;;;;;;;;;12.40;99.90;;;11.34;100.00;95574.84;10587964;27;1992;-76
2022/12/25 14:03:51;;;;;;;;;;;12.30;99.90;;;11.27;100.00;95578.97;10552222;27;1931;-76
2022/12/25 14:08:55;;;;;;;;;;;12.20;99.90;;;11.29;100.00;95577.59;10590095;27;2155;-76
2022/12/25 14:14:09;;;;;;;;;;;12.20;99.90;;;11.31;100.00;95571.91;10573738;27;2076;-75
2022/12/25 14:19:13;;;;;;;;;;;12.10;99.90;;;11.18;100.00;95569.88;10586554;27;1976;-75
2022/12/25 14:24:19;;;;;;;;;;;12.10;99.90;;;11.17;100.00;95563.69;10555492;27;1967;-76
2022/12/25 14:29:23;;;;;;;;;;;12.10;99.90;;;11.04;100.00;95558.97;10564794;27;4457;-76
2022/12/25 14:34:32;;;;;;;;;;;12.00;99.90;;;11.03;100.00;95577.00;10542432;27;2083;-77
2022/12/25 14:39:37;;;;;;;;;;;11.90;99.90;;;11.03;100.00;95578.88;10556564;27;1975;-76
2022/12/25 14:44:44;;;;;;;;;;;12.00;99.90;;;10.94;100.00;95581.38;10592327;27;1950;-76
2022/12/25 14:49:48;;;;;;;;;;;11.90;99.90;;;10.92;100.00;95582.72;10560443;28;2002;-77
2022/12/25 14:54:53;;;;;;;;;;;11.90;99.90;;;10.77;100.00;95579.06;10578645;27;1886;-77
2022/12/25 14:59:56;;;;;;;;;;;11.80;99.90;;;10.48;100.00;95588.91;10584168;27;1971;-75
2022/12/25 15:05:00;;;;;;;;;;;11.60;99.90;;;10.33;100.00;95578.25;10566060;27;1997;-78
2022/12/25 15:10:09;;;;;;;;;;;11.40;99.90;;;10.28;100.00;95584.44;10570479;27;1926;-77
2022/12/25 15:15:33;;;;;;;;;;;11.30;99.90;;;10.13;100.00;95574.53;10567198;27;1941;-77
2022/12/25 15:20:37;;;;;;;;;;;11.20;99.90;;;10.06;100.00;95578.63;10562244;28;2129;-77
2022/12/25 15:25:41;;;;;;;;;;;11.10;99.90;;;9.88;100.00;95580.00;10574382;27;2201;-75
2022/12/25 15:30:45;;;;;;;;;;;11.00;99.90;;;9.72;100.00;95580.03;10559134;28;4474;-76
2022/12/25 15:35:50;;;;;;;;;;;10.80;99.90;;;9.48;100.00;95582.53;10553833;27;2007;-77
2022/12/25 15:40:55;;;;;;;;;;;10.60;99.90;;;9.23;100.00;95584.44;10566111;27;1984;-75
2022/12/25 15:46:03;;;;;;;;;;;10.50;99.90;;;9.04;100.00;95598.38;10584347;27;1961;-77
2022/12/25 15:51:07;;;;;;;;;;;10.30;99.90;;;8.99;100.00;95582.28;10576645;27;1949;-76
2022/12/25 15:56:13;;;;;;;;;;;10.10;99.90;;;8.85;100.00;95586.56;10577295;27;1946;-77
2022/12/25 16:01:17;;;;;;;;;;;10.00;99.90;;;8.62;100.00;95596.72;10552508;27;1991;-76
2022/12/25 16:06:22;;;;;;;;;;;9.90;99.90;;;8.63;100.00;95587.59;10569082;27;2078;-78
2022/12/25 16:11:31;;;;;;;;;;;9.80;99.90;;;8.30;100.00;95604.91;10579843;27;2112;-77
2022/12/25 16:16:35;;;;;;;;;;;9.60;99.90;;;8.16;100.00;95600.31;10570939;28;1998;-76
2022/12/25 16:21:53;;;;;;;;;;;9.30;99.90;;;8.05;100.00;95592.22;10572424;27;2080;-77
2022/12/25 16:26:59;;;;;;;;;;;9.20;99.90;;;7.77;100.00;95595.31;10546293;28;4517;-77
2022/12/25 16:32:05;;;;;;;;;;;9.00;99.90;;;7.63;100.00;95611.00;10544811;27;1939;-76
2022/12/25 16:37:14;;;;;;;;;;;8.90;99.90;;;7.55;100.00;95606.16;10565622;28;2069;-76
2022/12/25 16:42:19;;;;;;;;;;;8.70;99.90;;;7.51;100.00;95613.91;10580870;27;1918;-77
2022/12/25 16:47:26;;;;;;;;;;;8.70;99.90;;;7.45;100.00;95614.94;10556813;28;2101;-76
2022/12/25 16:52:32;;;;;;;;;;;8.70;99.90;;;7.59;100.00;95616.09;10547694;27;1901;-75
2022/12/25 16:57:37;;;;;;;;;;;8.70;99.90;;;7.65;100.00;95614.25;10569636;27;2077;-76
2022/12/25 17:02:43;;;;;;;;;;;8.60;99.90;;;7.63;100.00;95620.91;10567328;27;1981;-76
2022/12/25 17:07:49;;;;;;;;;;;8.70;99.90;;;7.52;100.00;95618.19;10546362;28;2070;-76
2022/12/25 17:12:53;;;;;;;;;;;8.60;99.90;;;7.38;100.00;95629.56;10579562;27;2021;-77
2022/12/25 17:18:06;;;;;;;;;;;8.50;99.90;;;7.23;100.00;95623.06;10580549;27;1960;-77
2022/12/25 17:23:12;;;;;;;;;;;8.30;99.90;;;6.95;100.00;95621.50;10589572;27;1966;-76
2022/12/25 17:28:18;;;;;;;;;;;8.20;99.90;;;6.86;100.00;95619.53;10576712;27;4524;-76
2022/12/25 17:33:24;;;;;;;;;;;8.10;99.90;;;6.80;100.00;95613.31;10555584;27;1966;-77
2022/12/25 17:38:31;;;;;;;;;;;8.00;99.90;;;6.67;100.00;95609.19;10555330;27;2093;-75
2022/12/25 17:43:45;;;;;;;;;;;7.80;99.90;;;6.58;100.00;95616.06;10541729;27;2032;-75
2022/12/25 17:48:53;;;;;;;;;;;7.70;99.90;;;6.55;100.00;95621.09;10596235;27;1955;-78
2022/12/25 17:53:58;;;;;;;;;;;7.70;99.90;;;6.37;100.00;95615.06;10567018;27;2156;-76
2022/12/25 17:59:05;;;;;;;;;;;7.60;99.90;;;6.40;100.00;95619.09;10555099;27;1996;-76
2022/12/25 18:04:11;;;;;;;;;;;7.60;99.90;;;6.44;100.00;95626.34;10587625;27;2339;-77
2022/12/25 18:09:17;;;;;;;;;;;7.50;99.90;;;6.55;100.00;95632.56;10578788;27;2165;-77
2022/12/25 18:14:21;;;;;;;;;;;7.60;99.90;;;6.70;100.00;95645.31;10558100;27;2002;-75
2022/12/25 18:19:37;;;;;;;;;;;7.70;99.90;;;6.82;100.00;95653.97;10576886;27;1986;-77
2022/12/25 18:24:41;;;;;;;;;;;;;;;6.78;100.00;95664.34;10542929;27;1972;-77
2022/12/25 18:29:45;;;;;;;;;;;7.70;99.90;;;6.71;100.00;95657.59;10577039;27;4386;-76
2022/12/25 18:34:51;;;;;;;;;;;7.70;99.90;;;6.59;100.00;95656.94;10537744;27;2193;-77
2022/12/25 18:39:54;;;;;;;;;;;7.60;99.90;;;6.49;100.00;95655.78;10587932;27;1971;-78
2022/12/25 18:45:06;;;;;;;;;;;;;;;6.40;100.00;95657.25;10576760;27;1950;-78
2022/12/25 18:50:20;;;;;;;;;;;7.50;99.90;;;6.50;100.00;95667.25;10550060;27;1926;-76
2022/12/25 18:55:29;;;;;;;;;;;7.50;99.90;;;6.53;100.00;95671.28;10587257;27;2008;-76
2022/12/25 19:00:33;;;;;;;;;;;7.60;99.90;;;6.56;100.00;95671.59;10580890;27;1921;-77
2022/12/25 19:05:38;;;;;;;;;;;7.60;99.90;;;6.68;100.00;95668.78;10543557;27;2129;-78
2022/12/25 19:10:45;;;;;;;;;;;7.70;99.90;;;6.71;100.00;95670.97;10551164;27;1933;-77
2022/12/25 19:15:49;;;;;;;;;;;7.80;99.90;;;6.67;100.00;95665.28;10547041;27;1931;-77
2022/12/25 19:20:55;;;;;;;;;;;7.80;99.90;;;6.66;100.00;95654.88;10564761;28;1967;-76
2022/12/25 19:25:58;;;;;;;;;;;7.70;99.90;;;6.73;100.00;95666.16;10577748;27;1957;-78
2022/12/25 19:31:06;;;;;;;;;;;7.80;99.90;;;6.76;100.00;95665.66;10550359;28;4516;-78
2022/12/25 19:36:09;;;;;;;;;;;7.70;99.90;;;6.80;100.00;95677.44;10550394;27;1991;-77
2022/12/25 19:41:13;;;;;;;;;;;7.80;99.90;;;6.88;100.00;95668.19;10558209;27;2105;-76
2022/12/25 19:46:18;;;;;;;;;;;7.90;99.90;;;7.12;100.00;95671.34;10543200;27;1953;-76
2022/12/25 19:51:21;;;;;;;;;;;8.00;99.90;;;7.07;100.00;95664.09;10568825;27;2092;-75
2022/12/25 19:56:29;;;;;;;;;;;8.10;99.90;;;7.36;100.00;95663.78;10580948;27;1978;-77
2022/12/25 20:01:38;;;;;;;;;;;8.20;99.90;;;7.63;100.00;95661.03;10569066;27;2149;-76
2022/12/25 20:06:42;;;;;;;;;;;8.40;99.90;;;7.63;100.00;95658.34;10566717;27;2182;-76
2022/12/25 20:11:46;;;;;;;;;;;8.50;99.90;;;7.87;100.00;95648.88;10555649;27;1736;-77
2022/12/25 20:16:49;;;;;;;;;;;8.60;99.90;;;8.05;100.00;95645.78;10567228;27;1973;-78
2022/12/25 20:21:59;;;;;;;;;;;8.80;99.90;;;8.16;100.00;95651.19;10565690;27;1926;-77
2022/12/25 20:27:02;;;;;;;;;;;8.90;99.90;;;8.27;100.00;95663.53;10571540;27;4429;-76
2022/12/25 20:32:06;;;;;;;;;;;9.00;99.90;;;8.28;100.00;95662.47;10553903;27;1926;-76
2022/12/25 20:37:11;;;;;;;;;;;9.10;99.90;;;8.45;100.00;95660.41;10559087;27;1926;-77
2022/12/25 20:42:19;;;;;;;;;;;9.20;99.90;;;8.39;100.00;95656.91;10549317;27;1931;-76
2022/12/25 20:47:29;;;;;;;;;;;9.30;99.90;;;8.35;100.00;95671.91;10571449;27;1951;-76
2022/12/25 20:52:33;;;;;;;;;;;9.20;99.90;;;8.27;100.00;95674.25;10560787;28;1910;-76
2022/12/25 20:57:40;;;;;;;;;;;9.20;99.90;;;8.12;100.00;95673.09;10568108;27;2148;-76
2022/12/25 21:02:48;;;;;;;;;;;9.10;99.90;;;7.84;100.00;95692.22;10545660;28;1932;-77
2022/12/25 21:07:53;;;;;;;;;;;9.00;99.90;;;7.67;100.00;95694.25;10553937;28;2075;-78
2022/12/25 21:12:57;;;;;;;;;;;8.80;99.90;;;7.52;100.00;95690.41;10550207;28;1953;-76
2022/12/25 21:18:02;;;;;;;;;;;8.60;99.90;;;7.37;100.00;95698.28;10561947;28;1902;-76
2022/12/25 21:23:07;;;;;;;;;;;8.50;99.90;;;7.28;100.00;95694.47;10581005;27;1988;-76
2022/12/25 21:28:12;;;;;;;;;;;8.40;99.90;;;7.25;100.00;95706.50;10576907;28;4466;-77
2022/12/25 21:38:40;;;;;;;;;;;8.30;99.90;;;7.45;100.00;95719.25;10562966;28;1968;-76
2022/12/25 21:43:44;;;;;;;;;;;8.40;99.90;;;7.58;100.00;95726.84;10572061;28;1982;-76
2022/12/25 21:48:54;;;;;;;;;;;8.40;99.90;;;7.60;100.00;95739.94;10576624;28;1914;-77
2022/12/25 21:54:01;;;;;;;;;;;8.50;99.90;;;7.50;100.00;95735.31;10564809;28;2075;-75
2022/12/25 21:59:11;;;;;;;;;;;8.60;99.90;;;7.38;100.00;95747.22;10573362;27;1993;-76
2022/12/25 22:04:17;;;;;;;;;;;8.50;99.90;;;7.15;100.00;95745.69;10562816;27;1980;-77
2022/12/25 22:09:21;;;;;;;;;;;8.30;99.90;;;7.17;100.00;95743.56;10561526;27;2119;-77
2022/12/25 22:19:58;;;;;;;;;;;8.20;99.90;;;6.81;100.00;95774.44;10559868;27;1937;-76
2022/12/25 22:25:07;;;;;;;;;;;8.00;99.90;;;6.69;100.00;95763.91;10586401;27;1914;-77
2022/12/25 22:30:11;;;;;;;;;;;7.80;99.90;;;6.59;100.00;95766.44;10570951;27;4331;-76
2022/12/25 22:35:17;;;;;;;;;;;7.80;99.90;;;6.48;100.00;95758.28;10563851;27;1976;-76
2022/12/25 22:40:21;;;;;;;;;;;7.70;99.90;;;6.52;100.00;95763.16;10577648;28;1886;-76
2022/12/25 22:45:27;;;;;;;;;;;7.60;99.90;;;6.43;100.00;95773.47;10589061;27;1988;-75
2022/12/25 22:50:30;;;;;;;;;;;7.50;99.90;;;6.31;100.00;95768.22;10576262;27;2207;-77
2022/12/25 22:55:37;;;;;;;;;;;7.40;99.90;;;6.31;100.00;95767.41;10574202;27;2081;-77
2022/12/25 23:00:50;;;;;;;;;;;7.40;99.90;;;6.46;100.00;95763.06;10547349;27;2164;-76
2022/12/25 23:05:54;;;;;;;;;;;7.50;99.90;;;6.58;100.00;95759.47;10548036;27;2050;-76
2022/12/25 23:10:59;;;;;;;;;;;7.60;99.90;;;6.63;100.00;95764.91;10577629;27;1924;-77
2022/12/25 23:16:02;;;;;;;;;;;7.60;99.90;;;6.76;100.00;95762.66;10578679;27;2033;-77
2022/12/25 23:26:37;;;;;;;;;;;7.70;99.90;;;6.75;100.00;95760.22;10566461;27;1969;-77
2022/12/25 23:31:42;;;;;;;;;;;7.80;99.90;;;6.71;100.00;95756.44;10572431;27;1881;-77
2022/12/25 23:36:50;;;;;;;;;;;7.80;99.90;;;6.74;100.00;95766.59;10588513;27;1939;-75
2022/12/25 23:41:55;;;;;;;;;;;7.70;99.90;;;6.79;100.00;95761.34;10587994;27;2068;-77
2022/12/25 23:47:00;;;;;;;;;;;7.80;99.90;;;6.89;100.00;95766.00;10563201;27;2033;-76
2022/12/25 23:52:10;;;;;;;;;;;7.90;99.90;;;6.80;100.00;95768.28;10554689;27;1989;-76
2022/12/25 23:57:15;;;;;;;;;;;7.90;99.90;;;6.85;100.00;95765.69;10591010;27;1922;-76
